createdAt,value
2018-12-13T00:00:26.228Z,3.37
2018-12-13T00:02:53.803Z,3.47
2018-12-13T00:05:21.296Z,3.07
2018-12-13T00:07:48.805Z,3.77
2018-12-13T00:10:16.351Z,4.20
2018-12-13T00:12:43.989Z,4.03
2018-12-13T00:15:11.536Z,5.03
2018-12-13T00:17:39.054Z,4.03
2018-12-13T00:20:06.650Z,3.23
2018-12-13T00:22:34.160Z,4.37
2018-12-13T00:25:01.706Z,3.63
2018-12-13T00:27:29.234Z,3.53
2018-12-13T00:29:56.734Z,3.77
2018-12-13T00:32:24.255Z,3.67
2018-12-13T00:34:51.757Z,3.57
2018-12-13T00:37:19.256Z,3.60
2018-12-13T00:39:46.826Z,5.47
2018-12-13T00:42:14.321Z,4.30
2018-12-13T00:44:41.836Z,3.70
2018-12-13T00:47:09.329Z,3.73
2018-12-13T00:49:36.852Z,4.37
2018-12-13T00:52:04.388Z,4.93
2018-12-13T00:54:31.908Z,5.70
2018-12-13T00:56:59.406Z,5.10
2018-12-13T00:59:26.928Z,4.27
2018-12-13T01:01:54.541Z,5.70
2018-12-13T01:04:22.053Z,4.10
2018-12-13T01:06:49.545Z,4.93
2018-12-13T01:09:17.118Z,3.50
2018-12-13T01:11:44.623Z,4.97
2018-12-13T01:14:12.145Z,5.40
2018-12-13T01:16:39.647Z,5.60
2018-12-13T01:19:07.161Z,5.50
2018-12-13T01:21:34.657Z,5.33
2018-12-13T01:24:02.176Z,6.33
2018-12-13T01:26:29.677Z,6.13
2018-12-13T01:28:57.242Z,5.80
2018-12-13T01:31:24.775Z,6.57
2018-12-13T01:33:52.352Z,5.10
2018-12-13T01:36:19.849Z,6.27
2018-12-13T01:38:47.354Z,6.13
2018-12-13T01:41:14.875Z,9.00
2018-12-13T01:43:42.369Z,6.13
2018-12-13T01:46:09.885Z,6.10
2018-12-13T01:48:37.388Z,5.47
2018-12-13T01:51:05.009Z,6.93
2018-12-13T01:53:32.505Z,5.07
2018-12-13T01:56:00.029Z,6.60
2018-12-13T01:58:27.529Z,6.57
2018-12-13T02:00:55.041Z,5.77
2018-12-13T02:03:22.538Z,5.37
2018-12-13T02:05:50.057Z,5.67
2018-12-13T02:08:17.668Z,7.63
2018-12-13T02:10:45.181Z,6.50
2018-12-13T02:13:12.686Z,6.63
2018-12-13T02:15:40.210Z,7.13
2018-12-13T02:18:07.706Z,5.97
2018-12-13T02:20:35.272Z,8.37
2018-12-13T02:23:03.457Z,6.77
2018-12-13T02:25:33.391Z,5.67
2018-12-13T02:28:01.029Z,7.53
2018-12-13T02:30:28.969Z,6.77
2018-12-13T02:32:56.461Z,6.50
2018-12-13T02:35:23.983Z,6.47
2018-12-13T02:37:51.527Z,6.93
2018-12-13T02:40:19.046Z,7.30
2018-12-13T02:42:47.388Z,10.97
2018-12-13T02:45:15.011Z,7.60
2018-12-13T02:47:42.521Z,7.50
2018-12-13T02:50:10.094Z,7.27
2018-12-13T02:52:37.590Z,7.40
2018-12-13T02:55:05.166Z,8.80
2018-12-13T02:57:32.700Z,10.10
2018-12-13T03:00:00.322Z,7.87
2018-12-13T03:02:27.894Z,9.43
2018-12-13T03:04:55.393Z,9.13
2018-12-13T03:07:22.967Z,10.00
2018-12-13T03:09:50.470Z,10.93
2018-12-13T03:12:17.984Z,9.93
2018-12-13T03:14:45.781Z,9.37
2018-12-13T03:17:13.542Z,10.20
2018-12-13T03:19:41.034Z,9.63
2018-12-13T03:22:08.605Z,9.70
2018-12-13T03:24:36.102Z,9.23
2018-12-13T03:27:03.620Z,11.93
2018-12-13T03:29:31.115Z,9.90
2018-12-13T03:31:58.634Z,12.23
2018-12-13T03:34:26.132Z,11.97
2018-12-13T03:36:53.649Z,11.97
2018-12-13T03:39:21.165Z,12.97
2018-12-13T03:41:48.684Z,11.97
2018-12-13T03:44:16.229Z,10.77
2018-12-13T03:46:43.757Z,10.97
2018-12-13T03:49:11.254Z,12.27
2018-12-13T03:51:38.794Z,12.93
2018-12-13T03:54:06.397Z,13.80
2018-12-13T03:56:33.921Z,13.33
2018-12-13T03:59:01.430Z,14.78
2018-12-13T04:01:28.953Z,14.50
2018-12-13T04:03:56.450Z,15.17
2018-12-13T04:06:23.974Z,14.40
2018-12-13T04:08:51.480Z,15.10
2018-12-13T04:11:19.005Z,14.17
2018-12-13T04:13:46.514Z,11.77
2018-12-13T04:16:14.019Z,13.60
2018-12-13T04:18:41.537Z,13.77
2018-12-13T04:21:09.038Z,13.10
2018-12-13T04:23:36.557Z,14.90
2018-12-13T04:26:04.109Z,15.40
2018-12-13T04:28:31.626Z,14.13
2018-12-13T04:30:59.131Z,14.83
2018-12-13T04:33:26.655Z,13.03
2018-12-13T04:35:54.165Z,13.40
2018-12-13T04:38:22.395Z,15.50
2018-12-13T04:40:49.896Z,13.63
2018-12-13T04:43:17.468Z,11.40
2018-12-13T04:45:45.012Z,14.50
2018-12-13T04:48:12.656Z,13.33
2018-12-13T04:50:40.162Z,13.70
2018-12-13T04:53:07.688Z,14.37
2018-12-13T04:55:35.194Z,13.53
2018-12-13T04:58:02.713Z,14.13
2018-12-13T05:00:30.208Z,14.97
2018-12-13T05:02:57.732Z,15.57
2018-12-13T05:05:25.238Z,13.03
2018-12-13T05:07:52.779Z,14.40
2018-12-13T05:10:32.292Z,14.03
2018-12-13T05:12:59.808Z,13.87
2018-12-13T05:15:27.301Z,15.10
2018-12-13T05:17:54.824Z,12.57
2018-12-13T05:20:22.329Z,13.40
2018-12-13T05:22:49.846Z,10.40
2018-12-13T05:25:17.364Z,10.70
2018-12-13T05:27:44.853Z,9.27
2018-12-13T05:30:12.444Z,11.40
2018-12-13T05:32:39.958Z,11.37
2018-12-13T05:35:07.572Z,11.10
2018-12-13T05:37:35.070Z,11.90
2018-12-13T05:40:02.641Z,10.43
2018-12-13T05:42:30.145Z,12.10
2018-12-13T05:44:57.666Z,9.07
2018-12-13T05:47:25.156Z,11.97
2018-12-13T05:49:52.669Z,11.23
2018-12-13T05:52:20.168Z,11.70
2018-12-13T05:54:47.676Z,11.03
2018-12-13T05:57:15.179Z,10.13
2018-12-13T05:59:42.701Z,10.83
2018-12-13T06:02:10.197Z,12.17
2018-12-13T06:04:38.113Z,11.07
2018-12-13T06:07:05.750Z,11.60
2018-12-13T06:09:33.337Z,9.10
2018-12-13T06:12:00.865Z,12.77
2018-12-13T06:14:28.467Z,9.57
2018-12-13T06:16:56.054Z,11.47
2018-12-13T06:19:26.743Z,10.87
2018-12-13T06:21:53.089Z,9.60
2018-12-13T06:24:20.606Z,9.00
2018-12-13T06:26:48.129Z,9.57
2018-12-13T06:29:15.653Z,12.20
2018-12-13T06:31:43.152Z,9.80
2018-12-13T06:34:10.676Z,9.57
2018-12-13T06:36:38.177Z,9.30
2018-12-13T06:39:07.302Z,7.40
2018-12-13T06:41:34.908Z,8.67
2018-12-13T06:44:02.514Z,6.43
2018-12-13T06:46:30.009Z,7.97
2018-12-13T06:48:57.510Z,8.47
2018-12-13T06:51:25.036Z,7.90
2018-12-13T06:53:52.533Z,6.43
2018-12-13T06:56:20.040Z,8.37
2018-12-13T06:58:47.538Z,8.50
2018-12-13T07:01:16.203Z,6.87
2018-12-13T07:03:43.701Z,7.03
2018-12-13T07:06:11.212Z,8.00
2018-12-13T07:08:38.704Z,7.17
2018-12-13T07:11:06.236Z,6.03
2018-12-13T07:13:34.057Z,10.13
2018-12-13T07:16:01.680Z,7.37
2018-12-13T07:18:29.434Z,8.47
2018-12-13T07:20:56.953Z,7.00
2018-12-13T07:23:24.449Z,6.37
2018-12-13T07:25:51.969Z,6.70
2018-12-13T07:28:19.491Z,9.00
2018-12-13T07:30:47.014Z,6.60
2018-12-13T07:33:14.578Z,6.40
2018-12-13T07:35:42.377Z,6.37
2018-12-13T07:38:14.216Z,6.53
2018-12-13T07:40:39.423Z,9.30
2018-12-13T07:43:06.923Z,6.57
2018-12-13T07:45:34.452Z,7.53
2018-12-13T07:48:01.957Z,8.13
2018-12-13T07:50:29.480Z,8.77
2018-12-13T07:52:57.258Z,6.90
2018-12-13T07:55:24.777Z,6.63
2018-12-13T07:57:52.320Z,7.57
2018-12-13T08:00:19.892Z,7.80
2018-12-13T08:02:47.397Z,7.00
2018-12-13T08:05:14.898Z,6.50
2018-12-13T08:07:42.414Z,5.87
2018-12-13T08:10:09.986Z,7.00
2018-12-13T08:12:37.496Z,7.27
2018-12-13T08:15:05.504Z,5.60
2018-12-13T08:17:33.130Z,5.53
2018-12-13T08:20:00.739Z,6.40
2018-12-13T08:22:28.253Z,5.67
2018-12-13T08:24:55.797Z,5.60
2018-12-13T08:27:23.305Z,5.27
2018-12-13T08:29:50.802Z,6.10
2018-12-13T08:32:18.316Z,7.17
2018-12-13T08:34:45.805Z,5.53
2018-12-13T08:37:13.321Z,6.23
2018-12-13T08:39:40.872Z,5.67
2018-12-13T08:42:08.386Z,5.03
2018-12-13T08:44:35.880Z,7.10
2018-12-13T08:47:03.496Z,6.10
2018-12-13T08:49:31.001Z,5.27
2018-12-13T08:51:58.513Z,4.90
2018-12-13T08:54:26.014Z,6.17
2018-12-13T08:56:53.523Z,6.53
2018-12-13T08:59:21.029Z,6.23
2018-12-13T09:01:48.553Z,5.60
2018-12-13T09:04:16.047Z,5.73
2018-12-13T09:06:43.557Z,6.13
2018-12-13T09:09:11.107Z,7.53
2018-12-13T09:11:38.669Z,5.53
2018-12-13T09:14:06.221Z,5.40
2018-12-13T09:16:33.746Z,5.17
2018-12-13T09:19:01.241Z,5.07
2018-12-13T09:21:28.729Z,5.17
2018-12-13T09:23:56.245Z,5.30
2018-12-13T09:26:23.745Z,6.67
2018-12-13T09:28:51.265Z,6.00
2018-12-13T09:31:18.761Z,4.33
2018-12-13T09:33:46.282Z,4.83
2018-12-13T09:36:13.785Z,5.27
2018-12-13T09:38:41.306Z,4.17
2018-12-13T09:41:08.809Z,4.40
2018-12-13T09:43:36.320Z,4.60
2018-12-13T09:46:03.924Z,5.53
2018-12-13T09:48:31.441Z,4.30
2018-12-13T09:50:58.936Z,3.97
2018-12-13T09:53:26.445Z,4.07
2018-12-13T09:55:53.941Z,5.50
2018-12-13T09:58:21.453Z,5.00
2018-12-13T10:00:48.945Z,5.17
2018-12-13T10:03:16.460Z,4.63
2018-12-13T10:05:44.046Z,5.00
2018-12-13T10:08:11.559Z,6.57
2018-12-13T10:10:39.062Z,5.50
2018-12-13T10:13:06.629Z,4.03
2018-12-13T10:15:34.128Z,4.00
2018-12-13T10:18:01.689Z,4.07
2018-12-13T10:20:29.181Z,4.20
2018-12-13T10:22:56.706Z,4.60
2018-12-13T10:25:24.200Z,4.63
2018-12-13T10:27:51.738Z,5.07
2018-12-13T10:30:19.233Z,5.23
2018-12-13T10:32:46.725Z,4.30
2018-12-13T10:35:14.240Z,4.33
2018-12-13T10:37:41.738Z,4.27
2018-12-13T10:40:09.296Z,4.67
2018-12-13T10:42:36.799Z,3.83
2018-12-13T10:45:05.213Z,3.87
2018-12-13T10:47:32.709Z,4.07
2018-12-13T10:50:00.224Z,4.23
2018-12-13T10:52:27.717Z,4.53
2018-12-13T10:54:55.238Z,5.00
2018-12-13T10:57:22.728Z,5.57
2018-12-13T10:59:50.247Z,4.40
2018-12-13T11:02:23.356Z,4.77
2018-12-13T11:04:50.873Z,3.70
2018-12-13T11:07:18.416Z,5.00
2018-12-13T11:09:46.830Z,3.53
2018-12-13T11:12:14.325Z,4.20
2018-12-13T11:14:41.841Z,3.60
2018-12-13T11:17:09.333Z,3.90
2018-12-13T11:19:36.854Z,4.50
2018-12-13T11:22:04.353Z,4.27
2018-12-13T11:24:31.868Z,5.57
2018-12-13T11:27:07.205Z,4.20
2018-12-13T11:32:34.150Z,3.80
2018-12-13T11:35:01.661Z,4.57
2018-12-13T11:37:29.157Z,4.80
2018-12-13T11:39:56.681Z,4.03
2018-12-13T11:42:24.211Z,4.70
2018-12-13T11:44:51.720Z,4.27
2018-12-13T11:47:19.222Z,4.90
2018-12-13T11:49:46.740Z,5.00
2018-12-13T11:52:14.238Z,3.90
2018-12-13T11:54:42.764Z,4.50
2018-12-13T11:57:10.377Z,3.80
2018-12-13T11:59:37.901Z,4.03
2018-12-13T12:02:05.459Z,5.03
2018-12-13T12:04:32.981Z,4.90
2018-12-13T12:07:00.477Z,3.77
2018-12-13T12:09:28.066Z,3.63
2018-12-13T12:11:55.553Z,4.23
2018-12-13T12:14:23.150Z,3.97
2018-12-13T12:16:50.670Z,3.27
2018-12-13T12:19:18.220Z,3.43
2018-12-13T12:21:45.845Z,4.13
2018-12-13T12:24:13.401Z,3.83
2018-12-13T12:26:40.931Z,4.40
2018-12-13T12:29:08.431Z,3.30
2018-12-13T12:31:35.946Z,2.83
2018-12-13T12:34:03.442Z,3.20
2018-12-13T12:36:32.102Z,3.50
2018-12-13T12:38:59.768Z,3.20
2018-12-13T12:41:27.281Z,3.63
2018-12-13T12:43:54.786Z,3.53
2018-12-13T12:46:22.301Z,3.50
2018-12-13T12:48:49.803Z,3.23
2018-12-13T12:51:17.321Z,3.10
2018-12-13T12:53:45.237Z,4.63
2018-12-13T12:56:12.818Z,6.20
2018-12-13T12:58:40.314Z,4.90
2018-12-13T13:01:07.892Z,4.97
2018-12-13T13:03:35.390Z,8.20
2018-12-13T13:06:02.964Z,5.50
2018-12-13T13:08:30.456Z,4.50
2018-12-13T13:10:57.971Z,3.00
2018-12-13T13:13:25.468Z,7.53
2018-12-13T13:15:52.993Z,6.17
2018-12-13T13:18:21.192Z,4.00
2018-12-13T13:20:48.687Z,3.93
2018-12-13T13:23:16.204Z,3.67
2018-12-13T13:25:43.695Z,3.57
2018-12-13T13:28:11.209Z,2.63
2018-12-13T13:30:38.711Z,3.40
2018-12-13T13:33:06.232Z,2.70
2018-12-13T13:35:33.980Z,3.40
2018-12-13T13:38:03.101Z,2.90
2018-12-13T13:40:30.606Z,3.17
2018-12-13T13:42:58.167Z,2.40
2018-12-13T13:45:27.441Z,2.77
2018-12-13T13:47:54.956Z,3.07
2018-12-13T13:50:22.452Z,6.77
2018-12-13T13:52:49.960Z,5.40
2018-12-13T13:55:17.457Z,3.67
2018-12-13T13:57:44.969Z,3.07
2018-12-13T14:00:12.614Z,2.67
2018-12-13T14:02:40.133Z,3.17
2018-12-13T14:05:08.941Z,3.43
2018-12-13T14:07:36.509Z,3.70
2018-12-13T14:10:05.504Z,3.03
2018-12-13T14:12:33.022Z,2.47
2018-12-13T14:15:00.521Z,3.27
2018-12-13T14:17:28.153Z,2.60
2018-12-13T14:19:55.693Z,2.83
2018-12-13T14:22:23.209Z,3.30
2018-12-13T14:24:50.705Z,3.40
2018-12-13T14:27:18.445Z,2.90
2018-12-13T14:29:45.933Z,3.87
2018-12-13T14:32:13.422Z,2.47
2018-12-13T14:34:40.989Z,3.27
2018-12-13T14:37:08.536Z,3.67
2018-12-13T14:39:36.058Z,3.97
2018-12-13T14:42:03.547Z,5.63
2018-12-13T14:44:31.062Z,4.30
2018-12-13T14:46:58.562Z,3.50
2018-12-13T14:49:26.101Z,3.90
2018-12-13T14:51:53.603Z,2.77
2018-12-13T14:54:21.121Z,2.47
2018-12-13T14:56:48.612Z,3.17
2018-12-13T14:59:16.177Z,2.40
2018-12-13T15:01:43.675Z,2.67
2018-12-13T15:04:11.187Z,3.77
2018-12-13T15:06:38.676Z,2.80
2018-12-13T15:09:06.498Z,3.47
2018-12-13T15:11:33.997Z,2.97
2018-12-13T15:14:01.518Z,3.90
2018-12-13T15:16:29.017Z,3.23
2018-12-13T15:18:56.816Z,3.43
2018-12-13T15:21:24.456Z,2.50
2018-12-13T15:23:51.966Z,2.40
2018-12-13T15:26:19.504Z,2.47
2018-12-13T15:28:47.019Z,2.80
2018-12-13T15:31:14.512Z,2.77
2018-12-13T15:33:42.077Z,4.20
2018-12-13T15:36:09.572Z,2.63
2018-12-13T15:38:37.086Z,5.50
2018-12-13T15:41:04.632Z,3.53
2018-12-13T15:43:32.202Z,3.40
2018-12-13T15:45:59.756Z,3.40
2018-12-13T15:48:27.853Z,3.30
2018-12-13T15:50:55.345Z,2.50
2018-12-13T15:53:22.842Z,2.80
2018-12-13T15:55:50.360Z,3.47
2018-12-13T15:58:17.853Z,4.47
2018-12-13T16:00:45.365Z,3.10
2018-12-13T16:03:12.882Z,3.30
2018-12-13T16:05:40.397Z,2.93
2018-12-13T16:08:07.888Z,3.23
2018-12-13T16:10:35.401Z,4.23
2018-12-13T16:13:02.892Z,3.37
2018-12-13T16:15:30.405Z,3.13
2018-12-13T16:17:57.903Z,2.80
2018-12-13T16:20:25.432Z,3.17
2018-12-13T16:22:52.920Z,3.10
2018-12-13T16:25:20.437Z,3.27
2018-12-13T16:27:47.938Z,3.07
2018-12-13T16:30:15.704Z,3.23
2018-12-13T16:32:43.197Z,3.33
2018-12-13T16:35:10.722Z,3.17
2018-12-13T16:37:38.222Z,4.07
2018-12-13T16:40:10.278Z,2.97
2018-12-13T16:42:35.401Z,3.00
2018-12-13T16:45:02.969Z,3.97
2018-12-13T16:47:30.456Z,2.83
2018-12-13T16:49:57.965Z,3.63
2018-12-13T16:52:25.456Z,3.50
2018-12-13T16:54:52.978Z,3.70
2018-12-13T16:57:20.469Z,3.27
2018-12-13T16:59:48.028Z,3.77
2018-12-13T17:02:15.631Z,5.23
2018-12-13T17:04:43.120Z,4.37
2018-12-13T17:07:10.633Z,4.10
2018-12-13T17:09:38.176Z,4.10
2018-12-13T17:12:05.693Z,3.83
2018-12-13T17:14:33.187Z,3.43
2018-12-13T17:17:00.698Z,5.80
2018-12-13T17:19:28.197Z,4.50
2018-12-13T17:21:55.726Z,4.77
2018-12-13T17:24:23.216Z,6.17
2018-12-13T17:26:50.734Z,4.20
2018-12-13T17:29:18.281Z,4.63
2018-12-13T17:31:46.218Z,4.93
2018-12-13T17:34:13.760Z,5.20
2018-12-13T17:36:41.281Z,4.73
2018-12-13T17:39:08.772Z,3.93
2018-12-13T17:41:36.294Z,6.47
2018-12-13T17:44:03.799Z,4.83
2018-12-13T17:46:31.365Z,4.53
2018-12-13T17:48:58.913Z,5.00
2018-12-13T17:51:26.477Z,4.43
2018-12-13T17:53:53.965Z,5.70
2018-12-13T17:56:21.663Z,4.57
2018-12-13T17:58:49.509Z,5.73
2018-12-13T18:01:17.130Z,5.30
2018-12-13T18:03:44.624Z,5.53
2018-12-13T18:06:13.079Z,5.20
2018-12-13T18:08:40.573Z,4.87
2018-12-13T18:11:08.098Z,5.97
2018-12-13T18:13:35.605Z,5.03
2018-12-13T18:16:03.218Z,5.37
2018-12-13T18:18:30.708Z,7.97
2018-12-13T18:20:58.201Z,5.67
2018-12-13T18:23:25.752Z,5.00
2018-12-13T18:25:53.346Z,5.57
2018-12-13T18:28:20.854Z,6.07
2018-12-13T18:30:48.360Z,5.10
2018-12-13T18:33:15.874Z,6.10
2018-12-13T18:35:43.377Z,5.97
2018-12-13T18:38:10.889Z,5.80
2018-12-13T18:40:38.389Z,6.37
2018-12-13T18:43:10.238Z,5.53
2018-12-13T18:45:38.640Z,6.37
2018-12-13T18:48:06.212Z,5.77
2018-12-13T18:50:33.764Z,5.83
2018-12-13T18:53:01.324Z,6.57
2018-12-13T18:55:28.965Z,7.10
2018-12-13T18:57:56.493Z,6.63
2018-12-13T19:00:24.071Z,6.10
2018-12-13T19:02:51.727Z,6.43
2018-12-13T19:05:19.536Z,4.87
2018-12-13T19:07:47.053Z,8.93
2018-12-13T19:10:14.557Z,5.20
2018-12-13T19:12:42.072Z,7.70
2018-12-13T19:15:09.589Z,6.63
2018-12-13T19:17:37.152Z,6.90
2018-12-13T19:20:06.190Z,8.10
2018-12-13T19:22:33.789Z,6.97
2018-12-13T19:25:01.285Z,7.13
2018-12-13T19:27:28.807Z,6.93
2018-12-13T19:29:56.353Z,6.37
2018-12-13T19:32:23.977Z,6.60
2018-12-13T19:34:52.124Z,6.73
2018-12-13T19:37:19.642Z,6.83
2018-12-13T19:39:47.159Z,8.27
2018-12-13T19:42:15.271Z,7.03
2018-12-13T19:44:42.968Z,5.90
2018-12-13T19:47:10.457Z,7.87
2018-12-13T19:49:37.985Z,6.93
2018-12-13T19:52:05.482Z,5.77
2018-12-13T19:54:33.000Z,7.33
2018-12-13T19:57:00.493Z,7.23
2018-12-13T19:59:28.008Z,7.63
2018-12-13T20:01:55.508Z,7.27
2018-12-13T20:04:23.536Z,6.73
2018-12-13T20:06:51.588Z,7.03
2018-12-13T20:09:19.107Z,7.90
2018-12-13T20:11:46.606Z,7.87
2018-12-13T20:14:14.121Z,7.27
2018-12-13T20:16:42.162Z,6.80
2018-12-13T20:19:11.034Z,8.23
2018-12-13T20:21:38.879Z,7.37
2018-12-13T20:24:07.125Z,6.67
2018-12-13T20:26:35.094Z,8.90
2018-12-13T20:29:03.009Z,9.17
2018-12-13T20:31:31.008Z,8.07
2018-12-13T20:33:58.528Z,7.43
2018-12-13T20:36:26.177Z,7.23
2018-12-13T20:38:53.704Z,9.17
2018-12-13T20:41:21.338Z,9.07
2018-12-13T20:43:48.854Z,7.70
2018-12-13T20:46:16.355Z,8.17
2018-12-13T20:48:43.867Z,9.80
2018-12-13T20:51:11.371Z,13.37
2018-12-13T20:53:38.893Z,13.30
2018-12-13T20:56:06.392Z,12.17
2018-12-13T20:58:34.384Z,8.03
2018-12-13T21:01:01.925Z,8.93
2018-12-13T21:03:29.457Z,7.40
2018-12-13T21:05:56.953Z,7.37
2018-12-13T21:08:24.448Z,7.73
2018-12-13T21:10:51.967Z,7.37
2018-12-13T21:13:19.470Z,8.10
2018-12-13T21:15:47.010Z,8.67
2018-12-13T21:18:14.507Z,9.63
2018-12-13T21:20:42.020Z,8.30
2018-12-13T21:23:09.527Z,8.43
2018-12-13T21:25:37.054Z,8.40
2018-12-13T21:28:04.662Z,8.73
2018-12-13T21:30:32.181Z,8.80
2018-12-13T21:33:00.673Z,9.00
2018-12-13T21:35:28.324Z,10.10
2018-12-13T21:37:55.843Z,7.77
2018-12-13T21:40:23.357Z,9.53
2018-12-13T21:42:50.851Z,9.10
2018-12-13T21:45:18.365Z,8.33
2018-12-13T21:47:45.852Z,9.27
2018-12-13T21:50:13.668Z,8.87
2018-12-13T21:52:41.264Z,8.17
2018-12-13T21:55:08.828Z,8.03
2018-12-13T21:57:36.325Z,9.93
2018-12-13T22:00:06.860Z,9.13
2018-12-13T22:02:34.353Z,7.93
2018-12-13T22:05:01.874Z,9.17
2018-12-13T22:07:29.374Z,10.03
2018-12-13T22:09:56.901Z,9.57
2018-12-13T22:12:24.397Z,9.37
2018-12-13T22:14:51.887Z,8.07
2018-12-13T22:17:19.449Z,9.37
2018-12-13T22:19:46.957Z,10.70
2018-12-13T22:22:14.481Z,9.90
2018-12-13T22:24:42.546Z,9.40
2018-12-13T22:27:10.064Z,10.70
2018-12-13T22:29:37.557Z,9.00
2018-12-13T22:32:06.154Z,8.53
2018-12-13T22:34:33.661Z,10.73
2018-12-13T22:37:01.428Z,9.77
2018-12-13T22:39:28.924Z,10.57
2018-12-13T22:41:57.252Z,9.83
2018-12-13T22:44:24.819Z,11.37
2018-12-13T22:46:52.419Z,9.13
2018-12-13T22:49:19.917Z,9.30
2018-12-13T22:51:47.453Z,9.23
2018-12-13T22:54:14.950Z,10.83
2018-12-13T22:56:42.472Z,12.10
2018-12-13T22:59:10.039Z,11.10
2018-12-13T23:01:37.617Z,10.43
2018-12-13T23:04:05.165Z,9.93
2018-12-13T23:06:32.684Z,9.33
2018-12-13T23:09:00.241Z,11.30
2018-12-13T23:11:32.701Z,10.27
2018-12-13T23:13:57.286Z,10.97
2018-12-13T23:16:24.938Z,9.13
2018-12-13T23:18:52.433Z,9.47
2018-12-13T23:21:19.953Z,11.60
2018-12-13T23:23:47.444Z,9.70
2018-12-13T23:26:14.965Z,9.47
2018-12-13T23:28:42.460Z,10.70
2018-12-13T23:31:09.957Z,10.57
2018-12-13T23:33:38.012Z,7.97
2018-12-13T23:36:05.569Z,10.33
2018-12-13T23:38:33.088Z,10.43
2018-12-13T23:41:00.576Z,7.97
2018-12-13T23:43:28.097Z,10.40
2018-12-13T23:45:55.588Z,9.43
2018-12-13T23:48:23.104Z,9.50
2018-12-13T23:50:50.673Z,10.20
2018-12-13T23:53:18.217Z,9.10
2018-12-13T23:55:45.714Z,8.17
2018-12-13T23:58:13.230Z,10.57
